Latest Weather Observations for Wagga Wagga

IDN60801

Issued at 3:52 pm EST Monday 26 September 2022 (issued every 10 minutes, with the page automatically refreshed every 10 minutes)

About weather observations | Map of weather stations | Latest weather observations for NSW | Other Formats
Station Details ID: 072150 Name: WAGGA WAGGA AMO Lat: -35.16 Lon: 147.46 Height: 212.0 m
Data from the previous 72 hours. | See also: Recent months at Wagga Wagga
Date/Time
EST
Temp
°C
App
Temp
°C
Dew
Point
°C
Rel
Hum
%
Delta-T
°C
Wind Press
QNH
hPa
Press
MSL
hPa
Rain since
9am
mm
Dir  Spd
km/h
Gust
km/h
Spd
kts
Gust
kts
26/03:30pm 16.7 14.7 10.3 66 3.4 NE 11 15 6 8 1013.2 1013.3 0.0
26/03:00pm 16.6 14.1 9.8 64 3.6 NNE 13 15 7 8 1013.8 1013.9 0.0
26/02:30pm 17.4 13.7 8.0 54 4.8 N 17 20 9 11 1014.2 1014.2 0.0
26/02:00pm 17.9 14.4 7.3 50 5.4 N 15 20 8 11 1014.7 1014.7 0.0
26/01:49pm 18.3 15.6 9.1 55 4.9 N 13 19 7 10 1014.8 1014.8 0.0
26/01:30pm 17.9 14.4 7.3 50 5.4 NNE 15 20 8 11 1014.5 1014.5 0.0
26/01:29pm 17.7 14.2 7.2 50 5.3 NNE 15 20 8 11 1014.4 1014.4 0.0
26/01:00pm 18.0 14.2 7.7 51 5.3 NE 17 26 9 14 1014.8 1014.8 0.0
26/12:30pm 17.6 14.4 9.8 60 4.2 ENE 17 26 9 14 1015.3 1015.4 0.0
26/12:00pm 16.5 12.9 8.5 59 4.1 ENE 17 26 9 14 1015.8 1015.9 0.0
26/11:30am 15.8 12.1 9.5 66 3.3 E 19 26 10 14 1016.3 1016.4 0.0
26/11:00am 14.5 11.4 8.9 69 2.9 ENE 15 19 8 10 1017.1 1017.2 0.0
26/10:30am 13.5 10.8 8.8 73 2.4 E 13 17 7 9 1017.4 1017.5 0.0
26/10:00am 12.7 10.6 8.4 75 2.2 E 9 11 5 6 1018.0 1018.1 0.0
26/09:30am 11.9 9.9 7.2 73 2.3 E 7 11 4 6 1018.1 1018.2 0.0
26/09:00am 11.2 8.8 7.1 76 2.0 ENE 9 11 5 6 1017.8 1017.9 0.0
26/08:30am 10.3 7.9 7.2 81 1.5 E 9 13 5 7 1017.4 1017.5 0.0
26/08:00am 9.6 7.2 6.9 83 1.3 ESE 9 9 5 5 1017.3 1017.4 0.0
26/07:30am 9.2 6.4 6.8 85 1.1 E 11 15 6 8 1017.1 1017.2 0.0
26/07:00am 8.6 5.3 6.2 85 1.1 ESE 13 15 7 8 1016.8 1016.9 0.0
26/06:30am 8.4 5.8 6.0 85 1.1 E 9 11 5 6 1016.8 1016.9 0.0
26/06:00am 8.0 5.4 6.0 87 0.9 ESE 9 13 5 7 1016.2 1016.3 0.0
26/05:30am 7.5 4.4 5.6 88 0.9 ESE 11 13 6 7 1016.3 1016.4 0.0
26/05:00am 7.5 5.2 5.5 87 0.9 ENE 7 9 4 5 1016.5 1016.6 0.0
26/04:30am 8.0 5.3 5.8 86 1.0 E 9 11 5 6 1016.2 1016.3 0.0
26/04:00am 8.4 5.8 6.0 85 1.1 ESE 9 11 5 6 1016.0 1016.1 0.0
26/03:30am 8.5 6.3 6.3 86 1.0 SE 7 11 4 6 1015.7 1015.8 0.0
26/03:00am 8.6 6.0 6.2 85 1.1 E 9 11 5 6 1015.8 1015.9 0.0
26/02:30am 8.8 5.1 6.3 84 1.2 ESE 15 17 8 9 1015.7 1015.8 0.0
26/02:00am 8.6 6.0 6.1 84 1.2 ESE 9 11 5 6 1016.3 1016.4 0.0
26/01:30am 8.4 5.8 6.0 85 1.1 ESE 9 9 5 5 1017.1 1017.2 0.0
26/01:00am 8.3 6.3 6.4 88 0.9 ENE 6 9 3 5 1017.4 1017.5 0.0
26/12:30am 7.7 6.8 6.0 89 0.8 CALM 0 0 0 0 1018.0 1018.1 0.0
26/12:00am 8.8 6.8 6.3 84 1.2 ESE 6 9 3 5 1017.9 1018.0 0.0
 
Date/Time
EST
Temp
°C
App
Temp
°C
Dew
Point
°C
Rel
Hum
%
Delta-T
°C
Wind Press
QNH
hPa
Press
MSL
hPa
Rain since
9am
mm
Dir  Spd
km/h
Gust
km/h
Spd
kts
Gust
kts
25/11:30pm 8.6 6.0 6.2 85 1.1 E 9 11 5 6 1017.9 1018.0 0.0
25/11:00pm 7.7 5.1 6.0 89 0.8 ESE 9 13 5 7 1018.1 1018.2 0.0
25/10:30pm 6.9 5.9 5.4 90 0.7 CALM 0 0 0 0 1018.2 1018.3 0.0
25/10:00pm 7.7 6.8 6.2 90 0.7 CALM 0 0 0 0 1018.2 1018.3 0.0
25/09:30pm 7.9 5.6 5.7 86 1.0 ENE 7 9 4 5 1018.0 1018.1 0.0
25/09:00pm 8.7 7.8 6.0 83 1.2 CALM 0 6 0 3 1018.3 1018.4 0.0
25/08:30pm 9.3 8.0 6.2 81 1.4 SSW 2 7 1 4 1018.2 1018.3 0.0
25/08:00pm 9.3 6.9 5.3 76 1.8 S 7 9 4 5 1017.8 1017.9 0.0
25/07:30pm 9.4 6.7 5.8 78 1.7 SSW 9 11 5 6 1017.9 1018.0 0.0
25/07:00pm 10.2 7.7 6.4 77 1.8 SSW 9 11 5 6 1017.3 1017.4 0.0
25/06:30pm 12.3 10.2 6.6 68 2.7 SW 7 9 4 5 1016.9 1017.0 0.0
25/06:00pm 13.5 11.5 7.1 65 3.1 WSW 7 9 4 5 1016.9 1017.0 0.0
25/05:30pm 15.1 12.7 6.9 58 4.1 WSW 9 11 5 6 1016.5 1016.6 0.0
25/05:00pm 15.8 13.2 7.6 58 4.1 WSW 11 13 6 7 1016.1 1016.2 0.0
25/04:30pm 15.1 12.0 7.4 60 3.8 WSW 13 15 7 8 1016.2 1016.3 0.0
25/04:00pm 15.1 11.4 6.4 56 4.3 WSW 15 22 8 12 1016.1 1016.2 0.0
25/03:30pm 16.5 13.5 5.8 49 5.2 WNW 11 17 6 9 1016.0 1016.1 0.0
25/03:00pm 16.6 14.3 5.6 48 5.4 WNW 7 17 4 9 1016.0 1016.1 0.0
25/02:30pm 16.7 14.4 5.6 48 5.4 WNW 7 15 4 8 1015.9 1016.0 0.0
25/02:00pm 16.2 14.2 6.1 51 4.9 NNW 6 11 3 6 1016.2 1016.3 0.0
25/01:30pm 15.6 13.2 5.2 50 5.0 NW 7 19 4 10 1016.5 1016.6 0.0
25/01:00pm 15.8 14.4 5.4 50 5.0 NW 2 9 1 5 1016.7 1016.8 0.0
25/12:30pm 15.1 12.6 4.8 50 4.9 N 7 11 4 6 1017.1 1017.2 0.0
25/12:00pm 14.7 11.6 3.5 47 5.1 NW 9 19 5 10 1017.5 1017.6 0.0
25/11:30am 14.5 12.3 5.3 54 4.4 NW 6 15 3 8 1017.8 1017.9 0.0
25/11:00am 14.3 11.1 5.1 54 4.3 WNW 11 19 6 10 1018.0 1018.1 0.0
25/10:30am 13.5 10.5 4.1 53 4.3 SW 9 17 5 9 1018.2 1018.3 0.0
25/10:00am 13.0 11.0 6.1 63 3.3 SSW 6 9 3 5 1018.0 1018.1 0.0
25/09:30am 11.9 10.8 7.0 72 2.4 ENE 2 7 1 4 1018.0 1018.1 0.0
25/09:00am 10.3 8.1 6.3 76 1.9 ENE 7 11 4 6 1017.9 1018.0 0.0
25/08:30am 9.4 7.3 6.7 83 1.3 E 7 9 4 5 1018.1 1018.2 0.0
25/08:00am 6.7 5.7 5.5 92 0.5 CALM 0 0 0 0 1018.2 1018.3 0.0
25/07:30am 4.8 2.2 4.2 96 0.3 SW 7 9 4 5 1017.9 1018.0 0.0
25/07:00am 3.3 1.7 2.7 96 0.2 CALM 0 0 0 0 1017.7 1017.8 0.0
25/06:30am 1.4 -0.5 0.7 95 0.3 CALM 0 0 0 0 1017.2 1017.3 0.0
25/06:00am 2.2 0.5 1.6 96 0.2 CALM 0 0 0 0 1016.8 1016.9 0.0
25/05:30am 1.5 -1.1 0.8 95 0.3 SSE 4 7 2 4 1016.3 1016.4 0.0
25/05:00am 1.6 -1.4 0.9 95 0.3 SE 6 7 3 4 1015.9 1016.0 0.0
25/04:30am 2.8 0.0 2.1 95 0.3 NE 6 11 3 6 1015.5 1015.6 0.0
25/04:00am 3.2 0.2 2.3 94 0.4 ENE 7 9 4 5 1015.4 1015.5 0.0
25/03:30am 3.4 0.2 2.8 96 0.2 E 9 13 5 7 1015.6 1015.7 0.0
25/03:00am 2.1 -1.4 1.1 93 0.4 WSW 9 9 5 5 1015.9 1016.0 0.0
25/02:30am 4.4 1.6 3.1 91 0.5 ESE 7 9 4 5 1015.8 1015.9 0.0
25/02:00am 4.5 1.8 3.5 93 0.4 ESE 7 9 4 5 1015.9 1016.0 0.0
25/01:30am 4.0 2.6 3.3 95 0.3 CALM 0 7 0 4 1016.3 1016.4 0.0
25/01:00am 3.7 2.2 2.8 94 0.4 CALM 0 0 0 0 1016.4 1016.5 0.0
25/12:30am 4.5 2.2 2.5 87 0.8 NE 4 7 2 4 1016.6 1016.7 0.0
25/12:00am 5.5 2.8 3.7 88 0.8 E 7 7 4 4 1016.6 1016.7 0.0
 
Date/Time
EST
Temp
°C
App
Temp
°C
Dew
Point
°C
Rel
Hum
%
Delta-T
°C
Wind Press
QNH
hPa
Press
MSL
hPa
Rain since
9am
mm
Dir  Spd
km/h
Gust
km/h
Spd
kts
Gust
kts
24/11:30pm 5.8 4.6 4.8 93 0.4 CALM 0 4 0 2 1016.5 1016.6 0.0
24/11:00pm 5.3 3.1 3.5 88 0.8 SSW 4 7 2 4 1016.6 1016.7 0.0
24/10:30pm 6.5 4.2 4.8 89 0.7 SW 6 7 3 4 1016.6 1016.7 0.0
24/10:00pm 7.5 5.3 5.5 87 0.9 ENE 6 7 3 4 1016.5 1016.6 0.0
24/09:30pm 7.8 5.1 5.4 85 1.1 WSW 9 11 5 6 1016.2 1016.3 0.0
24/09:00pm 8.7 6.6 5.6 81 1.4 SSW 6 7 3 4 1015.9 1016.0 0.0
24/08:30pm 8.4 5.2 5.2 80 1.4 SSW 11 11 6 6 1015.6 1015.7 0.0
24/08:00pm 10.1 7.9 6.3 77 1.8 ESE 7 7 4 4 1015.3 1015.4 0.0
24/07:30pm 11.0 8.4 6.2 72 2.3 SW 9 15 5 8 1014.7 1014.7 0.0
24/07:00pm 11.7 7.4 6.8 72 2.4 WSW 19 22 10 12 1014.2 1014.2 0.0
24/06:30pm 12.4 8.2 7.3 71 2.5 WSW 19 24 10 13 1013.7 1013.8 0.0
24/06:00pm 13.4 9.6 7.6 68 2.9 WSW 17 22 9 12 1013.5 1013.6 0.0
24/05:30pm 14.8 10.5 7.8 63 3.5 WSW 20 28 11 15 1013.2 1013.3 0.0
24/05:00pm 15.8 11.1 7.6 58 4.1 WSW 22 30 12 16 1012.8 1012.9 0.0
24/04:30pm 16.3 10.4 7.5 56 4.4 W 28 32 15 17 1012.4 1012.5 0.0
24/04:00pm 16.7 12.4 7.9 56 4.5 WSW 20 30 11 16 1012.2 1012.3 0.0
24/03:30pm 16.2 10.7 7.7 57 4.3 WSW 26 39 14 21 1012.1 1012.2 0.0
24/03:00pm 16.9 11.4 9.3 61 4.0 W 28 35 15 19 1012.0 1012.1 0.0
24/02:30pm 17.5 13.9 10.6 64 3.7 W 20 30 11 16 1011.8 1011.9 0.0
24/02:00pm 15.7 13.2 10.9 73 2.6 W 15 17 8 9 1012.1 1012.2 0.0
24/01:43pm 16.6 14.4 12.0 74 2.5 W 15 22 8 12 1012.3 1012.4 0.0
24/01:30pm 15.8 13.2 10.8 72 2.7 W 15 26 8 14 1012.4 1012.5 0.0
24/01:00pm 13.9 11.7 10.7 81 1.7 W 13 17 7 9 1012.9 1013.0 0.0
24/12:30pm 12.8 9.4 10.5 86 1.2 W 19 26 10 14 1013.3 1013.4 0.0
24/12:00pm 13.8 10.7 11.5 86 1.2 W 19 22 10 12 1013.2 1013.3 0.0
24/11:41am 13.4 10.1 11.5 88 1.0 W 20 28 11 15 1013.3 1013.4 0.0
24/11:30am 13.5 9.3 11.2 86 1.2 W 24 28 13 15 1013.3 1013.4 0.0
24/11:00am 14.0 10.2 11.2 83 1.5 W 22 26 12 14 1013.1 1013.2 0.0
24/10:47am 14.0 10.6 11.2 83 1.5 W 20 26 11 14 1013.2 1013.3 0.0
24/10:30am 14.2 11.1 11.7 85 1.4 WNW 19 24 10 13 1013.2 1013.3 0.0
24/10:02am 14.4 13.1 11.2 81 1.7 W 9 13 5 7 1013.1 1013.2 0.0
24/10:00am 14.3 13.0 11.3 82 1.6 WSW 9 13 5 7 1013.0 1013.1 0.0
24/09:30am 14.4 13.0 10.8 79 1.9 W 9 17 5 9 1013.0 1013.1 0.0
24/09:00am 14.0 11.2 11.2 83 1.5 WSW 17 22 9 12 1012.9 1013.0 3.2
24/08:30am 13.3 10.6 11.7 90 0.9 W 17 20 9 11 1012.8 1012.9 3.2
24/08:12am 13.0 10.3 11.6 91 0.8 WNW 17 20 9 11 1012.7 1012.8 3.2
24/08:00am 13.0 10.5 11.2 89 1.0 W 15 20 8 11 1012.6 1012.7 3.2
24/07:30am 12.9 10.8 11.3 90 0.9 W 13 17 7 9 1012.4 1012.5 3.2
24/07:27am 12.9 10.8 11.3 90 0.9 W 13 17 7 9 1012.4 1012.5 3.2
24/07:00am 12.6 10.6 11.5 93 0.6 W 13 15 7 8 1012.2 1012.3 3.2
24/06:30am 12.5 10.8 11.2 92 0.7 W 11 13 6 7 1011.9 1012.0 3.2
24/06:00am 12.5 10.3 10.7 89 0.9 WSW 13 17 7 9 1011.8 1011.9 3.2
24/05:30am 12.6 11.4 11.5 93 0.6 W 9 13 5 7 1011.7 1011.8 3.2
24/05:00am 12.5 10.9 11.6 94 0.5 W 11 13 6 7 1011.4 1011.5 3.2
24/04:30am 12.5 9.8 11.6 94 0.5 WSW 17 22 9 12 1011.4 1011.5 3.2
24/04:00am 12.6 10.3 11.7 94 0.5 WSW 15 20 8 11 1011.4 1011.5 3.2
24/03:30am 12.7 10.0 11.6 93 0.6 W 17 24 9 13 1011.0 1011.1 3.2
24/03:00am 12.9 10.7 12.1 95 0.4 W 15 19 8 10 1011.0 1011.1 3.2
24/02:31am 13.0 11.3 12.4 96 0.3 WNW 13 17 7 9 1011.2 1011.3 3.2
24/02:30am 13.0 11.3 12.4 96 0.3 WNW 13 17 7 9 1011.1 1011.2 3.2
24/02:11am 13.1 11.4 12.5 96 0.3 NW 13 15 7 8 1011.3 1011.4 3.2
24/02:00am 13.1 11.8 12.5 96 0.3 NW 11 13 6 7 1011.5 1011.6 3.2
24/01:48am 13.1 11.8 12.6 97 0.3 NW 11 13 6 7 1011.5 1011.6 3.2
24/01:30am 13.2 11.9 12.6 96 0.3 NNW 11 13 6 7 1011.5 1011.6 3.0
24/01:00am 13.5 12.7 12.9 96 0.3 ENE 9 13 5 7 1011.4 1011.5 2.6
24/12:30am 13.6 14.1 12.7 94 0.5 W 2 6 1 3 1012.0 1012.1 1.6
24/12:00am 13.9 12.3 12.8 93 0.6 SSW 13 17 7 9 1012.0 1012.1 1.2
 
Date/Time
EST
Temp
°C
App
Temp
°C
Dew
Point
°C
Rel
Hum
%
Delta-T
°C
Wind Press
QNH
hPa
Press
MSL
hPa
Rain since
9am
mm
Dir  Spd
km/h
Gust
km/h
Spd
kts
Gust
kts
23/11:30pm 14.3 12.1 13.2 93 0.6 WSW 17 26 9 14 1012.1 1012.2 0.6
23/11:26pm 14.3 12.1 13.2 93 0.6 WSW 17 20 9 11 1012.1 1012.2 0.6
23/11:00pm 14.0 13.7 13.4 96 0.3 WSW 7 9 4 5 1012.2 1012.3 0.6
23/10:49pm 13.9 13.6 13.3 96 0.3 WSW 7 7 4 4 1012.1 1012.2 0.6
23/10:48pm 13.9 13.6 13.3 96 0.3 WSW 7 7 4 4 1012.1 1012.2 0.6
23/10:30pm 13.9 13.2 13.1 95 0.4 WSW 9 11 5 6 1012.3 1012.4 0.2
23/10:25pm 14.1 13.8 13.3 95 0.4 WSW 7 11 4 6 1012.4 1012.5 0.0
23/10:00pm 14.6 14.5 13.8 95 0.5 N 7 9 4 5 1012.5 1012.6 0.0
23/09:30pm 14.5 14.2 13.4 93 0.6 ENE 7 9 4 5 1012.4 1012.5 0.0
23/09:22pm 14.5 14.2 13.4 93 0.6 ENE 7 9 4 5 1012.5 1012.6 0.0
23/09:00pm 14.3 15.3 13.2 93 0.6 CALM 0 0 0 0 1012.8 1012.9 0.0
23/08:59pm 14.3 15.3 13.3 94 0.6 CALM 0 0 0 0 1012.8 1012.9 0.0
23/08:30pm 14.0 13.8 13.1 94 0.5 WNW 6 7 3 4 1012.8 1012.9 0.0
23/08:00pm 14.2 13.8 13.1 93 0.6 SW 7 9 4 5 1012.6 1012.7 0.0
23/07:30pm 15.1 14.7 14.1 94 0.6 SE 9 9 5 5 1012.5 1012.6 0.0
23/07:00pm 15.9 16.8 14.1 89 1.0 NE 2 9 1 5 1012.6 1012.7 0.0
23/06:30pm 16.2 16.3 14.0 87 1.3 NE 6 7 3 4 1012.4 1012.5 0.0
23/06:00pm 16.7 16.0 14.3 86 1.4 SE 11 11 6 6 1012.4 1012.5 0.0
23/05:30pm 17.3 17.6 14.6 84 1.6 SE 6 7 3 4 1012.6 1012.7 0.0
23/05:00pm 17.6 17.5 13.9 79 2.1 E 7 9 4 5 1012.4 1012.5 0.0
23/04:30pm 17.8 18.5 13.5 76 2.5 NE 2 7 1 4 1012.4 1012.5 0.0
23/04:00pm 17.5 16.9 13.6 78 2.2 NW 9 13 5 7 1012.5 1012.6 0.0

Other formats

Comma delimited format used in spreadsheet applications
http://www.bom.gov.au/fwo/IDN60801/IDN60801.94910.axf

JavaScript Object Notation format (JSON) in row-major order
http://www.bom.gov.au/fwo/IDN60801/IDN60801.94910.json

Data quality

Most of these data are generated automatically and are frequently updated. Quality checks on data are not normally performed. It is possible for incorrect values to appear. Refer to information at About Latest Weather Observations and please check the disclaimer before using these data.